Time;durP1;ratioP1;P1;durP2;ratioP2;P2;SDS_P1;SDS_P2;PMS_P1;PMS_P2;Temp;Humidity;BMP_temperature;BMP_pressure;BME280_temperature;BME280_humidity;BME280_pressure;Samples;Min_cycle;Max_cycle;Signal;HPM_P1;HPM_P2
2023/09/07 00:01:49;;;;;;;9.52;5.60;;;;;;;19.16;56.82;93159.69;2054930;70;20158;-78
2023/09/07 00:04:14;;;;;;;10.05;5.65;;;;;;;19.15;57.50;93157.47;2055218;70;20146;-76
2023/09/07 00:06:43;;;;;;;9.07;5.68;;;;;;;18.99;57.94;93157.63;2055071;69;20154;-77
2023/09/07 00:09:11;;;;;;;8.32;5.32;;;;;;;18.97;57.66;93143.28;2054868;70;20201;-77
2023/09/07 00:11:37;;;;;;;8.68;5.72;;;;;;;19.01;56.99;93141.31;2054555;69;20166;-76
2023/09/07 00:14:03;;;;;;;8.65;6.10;;;;;;;18.95;57.69;93154.59;2054796;69;20173;-76
2023/09/07 00:16:34;;;;;;;8.38;5.65;;;;;;;18.88;58.69;93159.38;2054899;70;20154;-76
2023/09/07 00:18:59;;;;;;;9.07;5.65;;;;;;;18.97;57.96;93160.41;2055071;70;20160;-77
2023/09/07 00:21:25;;;;;;;11.93;5.47;;;;;;;18.91;58.30;93160.16;2051730;70;20501;-77
2023/09/07 00:23:51;;;;;;;10.10;5.28;;;;;;;18.94;57.79;93158.84;2049146;70;20204;-77
2023/09/07 00:26:16;;;;;;;7.00;5.57;;;;;;;19.03;57.32;93149.94;2051462;70;20244;-77
2023/09/07 00:28:42;;;;;;;7.32;5.60;;;;;;;18.90;56.83;93161.56;2051563;70;20198;-77
2023/09/07 00:31:08;;;;;;;9.85;6.10;;;;;;;18.71;58.64;93157.28;2051530;70;20197;-76
2023/09/07 00:33:34;;;;;;;10.43;5.80;;;;;;;18.76;58.21;93156.78;2055098;69;20498;-76
2023/09/07 00:36:02;;;;;;;9.60;6.30;;;;;;;18.76;58.19;93158.91;2055121;70;20207;-77
2023/09/07 00:38:28;;;;;;;8.77;5.82;;;;;;;18.69;58.89;93163.66;2051451;70;20135;-76
2023/09/07 00:40:54;;;;;;;8.32;5.85;;;;;;;18.63;58.84;93154.09;2055042;70;20146;-76
2023/09/07 00:43:20;;;;;;;9.50;5.93;;;;;;;18.71;58.07;93151.59;2051163;70;20145;-76
2023/09/07 00:45:46;;;;;;;7.80;5.63;;;;;;;18.64;58.34;93156.28;2048153;70;20160;-76
2023/09/07 00:48:18;;;;;;;8.05;5.82;;;;;;;18.75;57.50;93151.75;2050938;70;20142;-74
2023/09/07 00:50:44;;;;;;;7.18;5.95;;;;;;;18.75;57.02;93157.44;2051261;70;20205;-74
2023/09/07 00:53:13;;;;;;;9.02;5.47;;;;;;;18.89;56.85;93155.13;2054843;70;20146;-75
2023/09/07 00:55:39;;;;;;;7.53;5.60;;;;;;;18.80;57.93;93150.50;2051458;70;20146;-75
2023/09/07 00:58:05;;;;;;;8.10;5.75;;;;;;;18.77;56.73;93149.69;2048654;70;20161;-75
2023/09/07 01:00:32;;;;;;;8.13;5.60;;;;;;;18.63;58.32;93154.09;2051899;69;20212;-75
2023/09/07 01:02:57;;;;;;;9.25;5.90;;;;;;;18.44;59.43;93156.25;2058161;69;20145;-76
2023/09/07 01:05:40;;;;;;;10.95;5.60;;;;;;;18.51;59.24;93149.41;2058121;69;20593;-76
2023/09/07 01:08:23;;;;;;;8.17;5.80;;;;;;;18.46;59.18;93147.03;2058230;69;20540;-75
2023/09/07 01:10:49;;;;;;;10.07;5.60;;;;;;;18.49;58.30;93159.97;2058025;69;20256;-75
2023/09/07 01:13:15;;;;;;;10.05;5.80;;;;;;;18.50;58.34;93155.75;2057777;69;20159;-75
2023/09/07 01:15:41;;;;;;;9.25;5.60;;;;;;;18.48;58.36;93156.41;2054069;69;20212;-75
2023/09/07 01:18:08;;;;;;;10.70;5.63;;;;;;;18.57;58.54;93143.19;2054430;69;20268;-75
2023/09/07 01:20:35;;;;;;;8.50;5.90;;;;;;;18.29;59.02;93137.13;2058105;69;20147;-75
2023/09/07 01:23:03;;;;;;;10.98;6.20;;;;;;;18.34;59.29;93140.88;2055135;69;20185;-76
2023/09/07 01:25:29;;;;;;;7.25;5.75;;;;;;;18.28;59.87;93138.53;2052000;69;20545;-76
2023/09/07 01:27:54;;;;;;;9.13;5.97;;;;;;;18.07;60.11;93136.97;2054298;69;20161;-76
2023/09/07 01:30:26;;;;;;;10.63;5.40;;;;;;;18.14;58.27;93130.13;2058025;69;20895;-75
2023/09/07 01:32:52;;;;;;;7.13;5.40;;;;;;;18.33;58.57;93133.72;2057876;69;20145;-75
2023/09/07 01:35:21;;;;;;;8.77;5.60;;;;;;;18.27;58.47;93143.47;2054784;69;20150;-75
2023/09/07 01:37:48;;;;;;;11.32;6.00;;;;;;;18.02;59.08;93135.34;2057892;69;20158;-75
2023/09/07 01:40:15;;;;;;;11.43;5.97;;;;;;;18.21;58.09;93133.97;2057921;69;20148;-75
2023/09/07 01:42:45;;;;;;;10.70;6.00;;;;;;;18.20;57.61;93135.34;2057992;69;20152;-75
2023/09/07 01:45:10;;;;;;;9.13;5.57;;;;;;;18.37;57.21;93136.69;2058084;69;20149;-76
2023/09/07 01:47:36;;;;;;;9.07;5.30;;;;;;;18.25;56.82;93134.84;2054279;69;20652;-77
2023/09/07 01:50:03;;;;;;;8.57;5.78;;;;;;;18.41;56.56;93137.59;2057853;69;20137;-76
2023/09/07 01:52:31;;;;;;;9.88;6.13;;;;;;;18.18;56.28;93101.78;2054323;69;20165;-76
2023/09/07 01:54:59;;;;;;;7.90;5.70;;;;;;;18.45;56.62;93132.03;2051819;69;20133;-76
2023/09/07 01:57:24;;;;;;;7.43;5.68;;;;;;;18.48;56.65;93132.88;2054526;69;20146;-76
2023/09/07 01:59:51;;;;;;;10.25;5.55;;;;;;;18.48;56.67;93132.88;2051940;69;20148;-76
2023/09/07 02:02:18;;;;;;;8.93;5.40;;;;;;;18.43;56.33;93126.28;2057864;69;20161;-77
2023/09/07 02:04:45;;;;;;;8.25;5.20;;;;;;;18.40;56.76;93130.44;2054564;69;20196;-76
2023/09/07 02:07:12;;;;;;;8.15;5.97;;;;;;;18.31;57.21;93122.22;2057548;69;20224;-76
2023/09/07 02:09:41;;;;;;;7.28;5.60;;;;;;;18.32;57.78;93118.72;2057538;69;20162;-76
2023/09/07 02:12:08;;;;;;;8.50;5.68;;;;;;;18.25;58.73;93122.72;2054702;69;20654;-76
2023/09/07 02:14:35;;;;;;;10.02;5.75;;;;;;;18.14;58.48;93123.69;2054633;69;20237;-76
2023/09/07 02:17:01;;;;;;;9.35;6.10;;;;;;;18.19;57.72;93123.22;2054730;69;20146;-75
2023/09/07 02:19:30;;;;;;;9.60;5.72;;;;;;;18.14;58.73;93126.53;2057956;69;20157;-77
2023/09/07 02:22:04;;;;;;;8.23;5.03;;;;;;;18.18;58.95;93124.59;2058062;69;20181;-76
2023/09/07 02:24:30;;;;;;;7.60;5.53;;;;;;;18.15;58.92;93125.91;2054882;69;20157;-77
2023/09/07 02:26:57;;;;;;;10.02;5.55;;;;;;;17.87;59.21;93127.59;2058183;69;20501;-77
2023/09/07 02:29:22;;;;;;;9.20;6.03;;;;;;;17.92;59.23;93118.59;2052120;69;20172;-77
2023/09/07 02:31:49;;;;;;;11.20;5.57;;;;;;;17.97;58.98;93119.47;2054619;69;20229;-77
2023/09/07 02:34:15;;;;;;;6.80;5.28;;;;;;;17.95;58.67;93128.66;2054798;69;20737;-78
2023/09/07 02:36:41;;;;;;;7.68;5.30;;;;;;;18.00;56.62;93118.16;2054936;69;20153;-77
2023/09/07 02:39:08;;;;;;;6.70;5.13;;;;;;;18.00;57.99;93118.88;2054750;69;20146;-76
2023/09/07 02:41:34;;;;;;;7.10;5.30;;;;;;;18.02;58.96;93124.69;2054789;69;20148;-77
2023/09/07 02:44:01;;;;;;;9.38;5.70;;;;;;;17.68;59.01;93115.44;2054991;69;20161;-76
2023/09/07 02:46:27;;;;;;;8.00;5.45;;;;;;;17.58;58.14;93120.00;2054745;69;20708;-77
2023/09/07 02:48:57;;;;;;;11.27;5.65;;;;;;;17.86;57.09;93126.13;2057924;69;20636;-77
2023/09/07 02:51:24;;;;;;;7.43;5.18;;;;;;;17.75;58.17;93125.72;2054743;69;20167;-78
2023/09/07 02:53:51;;;;;;;8.27;5.47;;;;;;;17.75;57.86;93128.59;2054628;69;20142;-76
2023/09/07 02:56:17;;;;;;;6.82;5.03;;;;;;;17.81;57.17;93128.09;2054835;69;20160;-77
2023/09/07 02:58:45;;;;;;;8.63;5.72;;;;;;;17.94;56.47;93130.06;2054746;69;20145;-76
2023/09/07 03:01:13;;;;;;;9.32;5.68;;;;;;;17.82;57.13;93129.53;2052908;70;20471;-78
2023/09/07 03:03:41;;;;;;;8.57;5.30;;;;;;;17.94;56.04;93130.06;2047249;70;20143;-77
2023/09/07 03:06:09;;;;;;;13.05;6.22;;;;;;;17.79;57.06;93125.16;2047842;70;20161;-77
2023/09/07 03:08:36;;;;;;;10.27;5.97;;;;;;;17.75;57.87;93127.84;2047866;70;20167;-77
2023/09/07 03:11:06;;;;;;;7.53;5.35;;;;;;;17.74;56.59;93134.94;2050891;70;20134;-77
2023/09/07 03:13:32;;;;;;;8.25;5.78;;;;;;;17.82;56.30;93137.38;2047550;70;20162;-77
2023/09/07 03:15:58;;;;;;;8.15;5.50;;;;;;;17.79;56.10;93125.16;2050873;70;20154;-77
2023/09/07 03:18:24;;;;;;;9.40;5.55;;;;;;;17.73;56.56;93136.25;2050836;70;20162;-77
2023/09/07 03:20:50;;;;;;;8.68;5.40;;;;;;;17.84;56.19;93131.75;2047690;70;20147;-76
2023/09/07 03:23:16;;;;;;;7.70;5.75;;;;;;;17.81;57.04;93135.91;2047588;70;20138;-77
2023/09/07 03:25:42;;;;;;;7.00;5.50;;;;;;;17.83;56.83;93142.44;2047678;70;20217;-77
2023/09/07 03:28:07;;;;;;;7.90;6.07;;;;;;;17.76;56.39;93135.72;2047427;70;20170;-77
2023/09/07 03:30:35;;;;;;;7.13;5.53;;;;;;;17.80;56.79;93129.47;2047486;70;20143;-77
2023/09/07 03:33:03;;;;;;;6.97;5.10;;;;;;;17.61;58.28;93130.81;2048044;70;20209;-76
2023/09/07 03:35:29;;;;;;;12.50;5.50;;;;;;;17.57;57.54;93132.75;2047996;70;20154;-76
2023/09/07 03:37:55;;;;;;;9.50;6.10;;;;;;;17.66;57.02;93131.72;2051340;70;20220;-77
2023/09/07 03:40:22;;;;;;;7.03;5.55;;;;;;;17.62;57.88;93128.69;2048145;70;20590;-77
2023/09/07 03:42:49;;;;;;;8.32;5.72;;;;;;;17.57;56.31;93127.06;2048129;70;20571;-76
2023/09/07 03:45:16;;;;;;;11.68;5.97;;;;;;;17.46;56.99;93129.50;2048285;70;20233;-76
2023/09/07 03:47:42;;;;;;;8.13;5.47;;;;;;;17.52;56.66;93134.69;2051512;70;20170;-78
2023/09/07 03:50:10;;;;;;;6.75;5.10;;;;;;;17.64;55.24;93140.91;2048166;70;20341;-76
2023/09/07 03:52:36;;;;;;;7.22;5.65;;;;;;;17.64;55.67;93140.16;2051489;70;20169;-76
2023/09/07 03:55:04;;;;;;;8.05;5.75;;;;;;;17.55;55.96;93141.97;2051452;70;20173;-77
2023/09/07 03:57:31;;;;;;;8.38;6.00;;;;;;;17.57;55.68;93138.44;2048207;70;20534;-77
2023/09/07 03:59:57;;;;;;;6.82;5.35;;;;;;;17.50;55.63;93138.22;2051591;70;20158;-76
2023/09/07 04:02:23;;;;;;;8.02;5.80;;;;;;;17.58;56.11;93134.22;2053239;70;20182;-76
2023/09/07 04:04:50;;;;;;;8.68;5.45;;;;;;;17.52;55.94;93146.09;2054831;70;20221;-76
2023/09/07 04:07:16;;;;;;;10.73;6.13;;;;;;;17.50;56.53;93146.00;2051535;70;20154;-76
2023/09/07 04:09:43;;;;;;;6.70;5.43;;;;;;;17.48;56.02;93140.22;2054799;70;20173;-76
2023/09/07 04:12:09;;;;;;;9.27;5.95;;;;;;;17.56;55.68;93140.56;2054804;70;20138;-76
2023/09/07 04:14:35;;;;;;;8.10;5.72;;;;;;;17.46;55.26;93143.00;2051460;70;20146;-76
2023/09/07 04:17:01;;;;;;;10.98;6.03;;;;;;;17.46;54.42;93146.56;2051338;70;20177;-77
2023/09/07 04:19:27;;;;;;;7.72;5.57;;;;;;;17.48;54.77;93143.81;2051491;70;20134;-77
2023/09/07 04:21:53;;;;;;;10.23;5.43;;;;;;;17.40;55.47;93140.59;2051342;70;20200;-75
2023/09/07 04:24:20;;;;;;;9.43;5.50;;;;;;;17.20;57.36;93148.28;2051364;70;20240;-76
2023/09/07 04:26:47;;;;;;;8.07;5.38;;;;;;;17.12;58.78;93142.97;2051159;70;20154;-76
2023/09/07 04:29:14;;;;;;;8.32;5.55;;;;;;;17.32;55.86;93150.91;2051248;70;20154;-75
2023/09/07 04:31:40;;;;;;;8.80;5.78;;;;;;;17.37;56.20;93159.00;2051374;70;20149;-75
2023/09/07 04:34:05;;;;;;;8.90;5.38;;;;;;;17.19;56.84;93156.09;2051496;70;20141;-75
2023/09/07 04:36:31;;;;;;;8.80;5.57;;;;;;;17.17;56.44;93153.13;2051338;70;20562;-76
2023/09/07 04:38:57;;;;;;;7.40;5.47;;;;;;;17.22;54.93;93159.75;2054607;70;20248;-76
2023/09/07 04:41:23;;;;;;;7.07;5.63;;;;;;;17.22;56.58;93156.91;2051375;70;20553;-76
2023/09/07 04:43:49;;;;;;;8.40;5.60;;;;;;;17.11;57.04;93152.88;2054670;70;20196;-75
2023/09/07 04:46:14;;;;;;;10.10;5.32;;;;;;;17.16;58.51;93159.47;2051330;70;20164;-76
2023/09/07 04:48:41;;;;;;;12.15;5.75;;;;;;;17.07;58.40;93160.50;2051173;70;20598;-76
2023/09/07 04:51:08;;;;;;;7.78;5.57;;;;;;;17.14;57.50;93162.25;2051465;70;20158;-74
2023/09/07 04:53:36;;;;;;;11.88;6.15;;;;;;;17.09;57.65;93169.13;2051373;70;20161;-77
2023/09/07 04:56:05;;;;;;;9.68;5.55;;;;;;;17.02;57.14;93166.00;2051556;70;20154;-80
2023/09/07 04:58:32;;;;;;;8.10;5.75;;;;;;;16.94;56.28;93164.91;2048716;70;20637;-77
2023/09/07 05:01:09;;;;;;;7.53;5.40;;;;;;;17.08;57.62;93168.38;2051337;70;20187;-77
2023/09/07 05:03:37;;;;;;;6.82;5.10;;;;;;;17.14;56.88;93168.66;2048592;70;20146;-76
2023/09/07 05:06:04;;;;;;;7.97;5.38;;;;;;;17.14;57.02;93171.50;2051560;70;20130;-78
2023/09/07 05:08:35;;;;;;;8.20;5.18;;;;;;;17.01;55.86;93166.66;2047674;70;20234;-78
2023/09/07 05:11:04;;;;;;;7.22;5.95;;;;;;;17.13;55.53;93164.34;2047971;70;20142;-78
2023/09/07 05:13:31;;;;;;;9.00;5.45;;;;;;;17.09;55.95;93169.13;2044979;70;20245;-79
2023/09/07 05:16:04;;;;;;;7.72;5.43;;;;;;;17.01;56.53;93178.78;2044882;70;20222;-79
2023/09/07 05:18:32;;;;;;;8.02;5.47;;;;;;;16.97;54.52;93172.91;2044661;70;20146;-77
2023/09/07 05:20:57;;;;;;;6.78;5.22;;;;;;;17.01;54.10;93172.34;2044753;70;20213;-79
2023/09/07 05:23:24;;;;;;;8.52;5.65;;;;;;;17.05;54.58;93183.19;2044454;70;20286;-79
2023/09/07 05:25:54;;;;;;;10.48;5.35;;;;;;;17.09;54.18;93184.09;2048198;70;20196;-76
2023/09/07 05:28:23;;;;;;;7.93;5.75;;;;;;;16.92;53.66;93184.75;2044997;70;20174;-77
2023/09/07 05:30:50;;;;;;;8.30;5.63;;;;;;;17.07;54.17;93194.63;2045006;70;20667;-77
2023/09/07 05:33:18;;;;;;;10.35;5.35;;;;;;;16.92;54.17;93182.63;2044727;70;20209;-77
2023/09/07 05:35:45;;;;;;;8.27;5.60;;;;;;;17.09;54.59;93194.72;2044866;70;20166;-77
2023/09/07 05:38:11;;;;;;;7.55;5.28;;;;;;;16.97;56.60;93195.66;2044914;70;20139;-78
2023/09/07 05:40:39;;;;;;;9.57;5.40;;;;;;;17.03;56.79;93192.34;2044884;70;20563;-77
2023/09/07 05:43:05;;;;;;;8.40;5.53;;;;;;;17.04;55.98;93190.94;2044816;70;20159;-76
2023/09/07 05:45:36;;;;;;;12.40;6.03;;;;;;;16.90;55.73;93187.47;2044805;70;20582;-78
2023/09/07 05:48:03;;;;;;;9.00;5.50;;;;;;;16.79;56.33;93188.41;2041927;70;20215;-78
2023/09/07 05:50:29;;;;;;;8.73;5.43;;;;;;;16.91;55.54;93197.50;2047860;70;20141;-82
2023/09/07 05:52:55;;;;;;;8.95;5.72;;;;;;;16.96;56.55;93202.72;2044738;70;20147;-77
2023/09/07 05:55:23;;;;;;;7.32;5.35;;;;;;;16.94;56.06;93196.94;2044625;70;20603;-78
2023/09/07 05:57:49;;;;;;;10.07;5.60;;;;;;;16.97;55.51;93204.19;2041964;70;20305;-78
2023/09/07 06:00:16;;;;;;;9.77;5.68;;;;;;;16.91;53.01;93201.06;2044484;70;20130;-76
2023/09/07 06:02:45;;;;;;;7.57;5.70;;;;;;;16.95;53.67;93194.81;2044404;70;20150;-79
2023/09/07 06:05:12;;;;;;;8.02;5.43;;;;;;;16.75;53.42;93201.06;2044408;70;20602;-76
2023/09/07 06:07:38;;;;;;;9.32;5.30;;;;;;;17.02;53.29;93197.28;2044521;70;20146;-77
2023/09/07 06:10:05;;;;;;;6.82;5.07;;;;;;;17.13;54.73;93195.63;2044582;70;20142;-77
2023/09/07 06:12:32;;;;;;;9.52;5.47;;;;;;;17.16;54.63;93194.34;2047438;70;20166;-77
2023/09/07 06:15:01;;;;;;;9.05;5.35;;;;;;;17.12;53.45;93193.44;2044654;70;20147;-76
2023/09/07 06:17:28;;;;;;;8.25;5.25;;;;;;;16.76;53.69;93193.25;2044626;70;20321;-77
2023/09/07 06:19:55;;;;;;;8.40;5.70;;;;;;;16.91;53.51;93191.81;2044767;70;20710;-76
2023/09/07 06:22:21;;;;;;;8.90;5.63;;;;;;;16.94;55.02;93199.03;2044537;70;20519;-76
2023/09/07 06:24:47;;;;;;;11.00;5.30;;;;;;;17.04;56.06;93202.34;2044716;70;20673;-77
2023/09/07 06:27:13;;;;;;;11.13;5.78;;;;;;;16.99;56.20;93197.84;2044777;70;20623;-76
2023/09/07 06:29:38;;;;;;;8.52;5.68;;;;;;;17.04;54.90;93196.66;2048166;70;20158;-77
2023/09/07 06:32:11;;;;;;;8.38;5.45;;;;;;;16.93;56.76;93200.41;2047987;70;20301;-79
2023/09/07 06:34:40;;;;;;;8.85;5.65;;;;;;;16.97;56.80;93203.44;2044759;70;20143;-76
2023/09/07 06:37:06;;;;;;;7.95;5.50;;;;;;;17.04;55.90;93199.50;2042048;70;20147;-76
2023/09/07 06:39:34;;;;;;;8.00;4.97;;;;;;;17.08;57.19;93199.66;2044796;70;20208;-79
2023/09/07 06:42:03;;;;;;;7.90;5.38;;;;;;;17.11;55.71;93204.09;2044692;70;20135;-77
2023/09/07 06:44:34;;;;;;;9.27;5.78;;;;;;;17.01;56.17;93204.38;2044598;70;20167;-77
2023/09/07 06:47:02;;;;;;;10.27;5.38;;;;;;;16.98;55.63;93199.22;2044510;70;20147;-76
2023/09/07 06:49:29;;;;;;;10.05;5.45;;;;;;;17.28;57.78;93200.59;2044603;70;20150;-77
2023/09/07 06:52:02;;;;;;;10.80;5.60;;;;;;;17.52;57.46;93209.44;2041884;70;20151;-78
2023/09/07 06:54:28;;;;;;;7.85;5.78;;;;;;;17.69;56.59;93199.50;2044799;70;20166;-78
2023/09/07 06:56:56;;;;;;;6.88;5.10;;;;;;;17.98;54.99;93195.72;2044673;70;20147;-78
2023/09/07 06:59:21;;;;;;;8.57;5.55;;;;;;;18.27;52.65;93197.63;2047278;70;20147;-78
2023/09/07 07:01:47;;;;;;;8.80;5.45;;;;;;;18.44;51.89;93195.41;2047293;70;20150;-78
2023/09/07 07:04:13;;;;;;;10.80;5.28;;;;;;;18.98;50.06;93193.25;2044686;70;20253;-78
2023/09/07 07:06:39;;;;;;;8.25;5.13;;;;;;;19.14;52.37;93193.09;2047805;70;20142;-78
2023/09/07 07:09:05;;;;;;;6.97;5.43;;;;;;;19.42;53.14;93191.28;2047871;70;20195;-79
2023/09/07 07:11:31;;;;;;;8.10;5.53;;;;;;;19.57;51.40;93188.94;2044552;70;20143;-78
2023/09/07 07:13:57;;;;;;;8.82;5.35;;;;;;;19.76;51.14;93196.78;2047961;70;20214;-78
2023/09/07 07:16:24;;;;;;;8.73;5.40;;;;;;;19.88;47.98;93185.03;2047980;70;20201;-78
2023/09/07 07:18:50;;;;;;;7.65;4.95;;;;;;;20.28;47.22;93182.78;2044582;70;20537;-80
2023/09/07 07:21:16;;;;;;;6.25;4.70;;;;;;;20.54;46.87;93177.22;2044676;70;20142;-78
2023/09/07 07:23:42;;;;;;;8.52;5.07;;;;;;;21.01;48.01;93182.22;2044532;70;20154;-79
2023/09/07 07:26:08;;;;;;;8.70;5.50;;;;;;;21.16;46.74;93180.50;2044663;70;20139;-80
2023/09/07 07:28:37;;;;;;;10.23;5.50;;;;;;;21.14;43.95;93185.44;2044543;70;20269;-81
2023/09/07 07:31:08;;;;;;;10.63;5.25;;;;;;;21.29;45.04;93179.44;2044683;70;20171;-81
2023/09/07 07:33:34;;;;;;;8.95;5.07;;;;;;;21.70;45.08;93182.75;2044641;70;20598;-80
2023/09/07 07:36:00;;;;;;;7.35;5.55;;;;;;;21.87;44.64;93181.78;2042092;70;20146;-81
2023/09/07 07:38:28;;;;;;;6.80;5.30;;;;;;;21.74;44.34;93180.72;2042650;70;20449;-80
2023/09/07 07:40:54;;;;;;;9.18;4.88;;;;;;;21.95;43.39;93175.53;2044615;70;20495;-82
2023/09/07 07:43:22;;;;;;;10.20;5.78;;;;;;;21.79;44.17;93182.28;2044646;70;20139;-82
2023/09/07 07:45:47;;;;;;;8.98;4.80;;;;;;;22.33;44.62;93172.94;2045791;70;20142;-82
2023/09/07 07:48:15;;;;;;;7.38;5.15;;;;;;;22.60;45.44;93182.91;2044334;70;20151;-82
2023/09/07 07:50:44;;;;;;;8.05;5.63;;;;;;;22.90;44.28;93179.28;2047727;70;20254;-82
2023/09/07 07:53:14;;;;;;;7.55;5.18;;;;;;;22.86;44.39;93179.16;2044530;70;20181;-81
2023/09/07 07:55:42;;;;;;;7.72;5.15;;;;;;;23.07;43.71;93175.38;2044580;70;20575;-82
2023/09/07 07:58:12;;;;;;;8.07;4.80;;;;;;;23.32;44.09;93177.34;2044515;70;20157;-82
2023/09/07 08:00:47;;;;;;;7.40;5.70;;;;;;;23.20;44.66;93168.47;2047246;70;20599;-82
2023/09/07 08:03:16;;;;;;;7.40;4.63;;;;;;;23.18;45.15;93174.16;2044320;70;20496;-82
2023/09/07 08:05:43;;;;;;;8.50;4.97;;;;;;;23.43;43.85;93171.81;2044545;70;20155;-82
2023/09/07 08:08:11;;;;;;;7.47;4.93;;;;;;;24.23;42.75;93177.66;2047293;70;20221;-81
2023/09/07 08:10:38;;;;;;;6.15;4.90;;;;;;;24.78;42.13;93154.81;2044506;70;20150;-80
2023/09/07 08:13:05;;;;;;;7.10;4.70;;;;;;;25.32;41.99;93160.63;2044347;70;20146;-80
2023/09/07 08:15:35;;;;;;;6.60;5.03;;;;;;;25.31;41.70;93162.06;2047841;70;20155;-80
2023/09/07 08:18:05;;;;;;;6.53;4.88;;;;;;;25.14;41.88;93156.78;2047941;70;20139;-80
2023/09/07 08:20:33;;;;;;;6.15;4.75;;;;;;;25.19;40.91;93147.50;2045058;70;20146;-82
2023/09/07 08:22:59;;;;;;;7.03;4.60;;;;;;;25.84;39.79;93154.09;2048468;70;20154;-80
2023/09/07 08:25:27;;;;;;;5.47;4.70;;;;;;;25.47;39.23;93147.13;2045086;70;20229;-81
2023/09/07 08:27:57;;;;;;;6.80;4.85;;;;;;;25.73;38.64;93157.53;2042391;70;20154;-80
2023/09/07 08:30:24;;;;;;;7.78;4.45;;;;;;;25.60;39.55;93148.72;2045018;70;20586;-81
2023/09/07 08:32:51;;;;;;;5.82;4.50;;;;;;;26.37;37.16;93151.00;2047718;70;20233;-81
2023/09/07 08:35:17;;;;;;;5.18;4.63;;;;;;;26.61;36.62;93148.31;2048329;70;20228;-81
2023/09/07 08:37:43;;;;;;;6.55;4.05;;;;;;;26.97;36.36;93150.03;2048330;70;20150;-82
2023/09/07 08:40:11;;;;;;;5.85;4.60;;;;;;;26.78;35.91;93145.56;2048293;70;20119;-79
2023/09/07 08:42:37;;;;;;;5.55;4.50;;;;;;;27.17;34.14;93148.72;2048337;70;20142;-83
2023/09/07 08:45:07;;;;;;;5.75;4.82;;;;;;;27.23;32.41;93143.72;2048603;70;20150;-80
2023/09/07 08:47:36;;;;;;;6.97;4.72;;;;;;;27.64;33.15;93140.28;2047726;70;20142;-81
2023/09/07 08:50:06;;;;;;;7.05;5.05;;;;;;;28.17;32.23;93146.97;2048400;70;20198;-80
2023/09/07 08:52:34;;;;;;;6.05;5.18;;;;;;;28.85;31.04;93150.66;2045081;70;20313;-81
2023/09/07 08:55:04;;;;;;;5.43;4.80;;;;;;;29.00;32.54;93155.03;2048269;70;20159;-80
2023/09/07 08:57:32;;;;;;;5.43;4.47;;;;;;;29.49;33.25;93148.38;2048356;70;20166;-81
2023/09/07 08:59:58;;;;;;;7.03;5.03;;;;;;;28.71;33.90;93150.66;2045033;70;20217;-81
2023/09/07 09:02:24;;;;;;;5.43;4.82;;;;;;;29.00;32.43;93149.22;2048157;70;20155;-81
2023/09/07 09:04:52;;;;;;;7.68;4.90;;;;;;;29.45;32.28;93146.22;2045020;70;20154;-81
2023/09/07 09:07:18;;;;;;;6.50;4.80;;;;;;;29.17;32.91;93137.59;2048240;70;20217;-81
2023/09/07 09:09:44;;;;;;;6.10;4.68;;;;;;;29.02;31.53;93131.09;2048346;70;20174;-81
2023/09/07 09:12:14;;;;;;;5.10;4.55;;;;;;;29.48;32.97;93135.34;2048249;70;20181;-83
2023/09/07 09:14:48;;;;;;;5.53;4.35;;;;;;;29.67;31.97;93125.13;2048272;70;20175;-81
2023/09/07 09:17:15;;;;;;;5.43;4.63;;;;;;;30.24;30.65;93121.97;2048283;70;20258;-81
2023/09/07 09:19:42;;;;;;;8.05;5.15;;;;;;;30.12;30.76;93122.72;2045515;70;20135;-81
2023/09/07 09:22:08;;;;;;;5.97;4.90;;;;;;;29.87;30.98;93109.78;2048304;70;20147;-80
2023/09/07 09:24:34;;;;;;;5.72;4.78;;;;;;;29.89;30.30;93109.78;2047697;70;20186;-81
2023/09/07 09:27:00;;;;;;;5.40;4.50;;;;;;;30.74;30.26;93110.69;2048252;70;20151;-80
2023/09/07 09:29:27;;;;;;;5.28;4.78;;;;;;;30.91;29.38;93117.81;2048178;70;20213;-80
2023/09/07 09:31:53;;;;;;;5.07;4.57;;;;;;;30.74;28.71;93114.31;2048208;70;20146;-80
2023/09/07 09:34:20;;;;;;;6.40;5.05;;;;;;;30.56;28.42;93109.38;2048037;70;20138;-80
2023/09/07 09:36:46;;;;;;;5.53;4.82;;;;;;;30.37;29.50;93113.88;2048174;70;20218;-79
2023/09/07 09:39:23;;;;;;;7.13;5.00;;;;;;;31.90;29.50;93109.50;2048485;70;20157;-81
2023/09/07 09:41:52;;;;;;;5.38;4.88;;;;;;;31.71;29.09;93100.25;2048227;70;20175;-80
2023/09/07 09:44:21;;;;;;;6.85;4.75;;;;;;;31.97;28.25;93102.13;2048324;70;20665;-81
2023/09/07 09:46:49;;;;;;;5.60;4.50;;;;;;;33.07;29.73;93105.56;2048070;70;20682;-80
2023/09/07 09:49:16;;;;;;;6.53;4.72;;;;;;;33.54;28.01;93093.03;2048161;70;20139;-81
2023/09/07 09:51:42;;;;;;;5.88;4.70;;;;;;;31.96;29.15;93097.06;2048200;70;20134;-80
2023/09/07 09:54:13;;;;;;;6.50;4.40;;;;;;;33.49;29.07;93095.31;2048164;70;20154;-80
2023/09/07 09:56:39;;;;;;;5.28;4.78;;;;;;;34.40;27.85;93101.44;2048354;70;20157;-81
2023/09/07 09:59:04;;;;;;;6.78;4.95;;;;;;;32.67;28.29;93096.03;2048168;70;20233;-81
2023/09/07 10:01:41;;;;;;;6.70;4.90;;;;;;;32.71;28.58;93095.22;2048270;70;20134;-81
2023/09/07 10:04:09;;;;;;;6.32;4.40;;;;;;;33.43;27.53;93089.59;2042273;70;20229;-80
2023/09/07 10:06:36;;;;;;;5.13;4.47;;;;;;;34.35;26.24;93084.75;2044824;70;20143;-81
2023/09/07 10:09:07;;;;;;;5.63;5.00;;;;;;;35.44;25.73;93085.75;2048152;70;20581;-80
2023/09/07 10:11:38;;;;;;;5.72;4.72;;;;;;;35.76;25.10;93081.94;2048151;70;20689;-81
2023/09/07 10:14:05;;;;;;;5.60;4.40;;;;;;;36.68;25.35;93081.41;2051448;70;20615;-81
2023/09/07 10:16:52;;;;;;;4.68;4.20;;;;;;;37.31;25.06;93085.19;2051230;70;20143;-81
2023/09/07 10:19:21;;;;;;;5.03;4.45;;;;;;;36.56;24.61;93076.66;2051394;70;20157;-80
2023/09/07 10:21:48;;;;;;;4.68;4.15;;;;;;;36.94;24.00;93071.78;2051395;70;20193;-81
2023/09/07 10:24:28;;;;;;;8.50;4.50;;;;;;;37.80;23.76;93086.41;2051375;70;20305;-81
2023/09/07 10:27:07;;;;;;;5.22;4.53;;;;;;;37.05;23.77;93075.06;2048352;70;20138;-81
2023/09/07 10:29:46;;;;;;;4.50;4.10;;;;;;;36.90;24.50;93066.00;2051370;70;20155;-81
2023/09/07 10:32:14;;;;;;;5.13;4.60;;;;;;;37.19;23.16;93070.94;2054844;70;20593;-80
2023/09/07 10:34:43;;;;;;;4.70;4.22;;;;;;;37.73;22.53;93068.28;2054991;70;20607;-81
2023/09/07 10:37:13;;;;;;;4.45;3.95;;;;;;;39.53;21.17;93058.97;2055157;70;20240;-81
2023/09/07 10:39:40;;;;;;;4.65;4.25;;;;;;;38.77;22.48;93064.38;2055020;69;20152;-81
2023/09/07 10:42:05;;;;;;;8.05;4.07;;;;;;;40.80;21.28;93062.75;2054835;70;20158;-81
2023/09/07 10:44:31;;;;;;;5.40;4.10;;;;;;;41.61;20.76;93054.31;2054969;70;20130;-81
2023/09/07 10:46:58;;;;;;;4.47;4.07;;;;;;;41.57;20.52;93048.63;2054889;69;20144;-81
2023/09/07 10:49:24;;;;;;;7.32;4.00;;;;;;;42.08;21.38;93043.69;2051608;70;20602;-81
2023/09/07 10:51:50;;;;;;;4.10;3.70;;;;;;;41.53;20.35;93037.72;2055049;70;20170;-81
2023/09/07 10:54:23;;;;;;;4.43;3.83;;;;;;;42.75;20.28;93033.38;2054987;70;20146;-81
2023/09/07 10:56:50;;;;;;;6.72;4.30;;;;;;;43.26;19.79;93039.34;2055029;70;20241;-81
2023/09/07 10:59:16;;;;;;;6.40;4.10;;;;;;;42.63;20.43;93039.97;2055103;70;20158;-82
2023/09/07 11:01:44;;;;;;;4.50;4.07;;;;;;;42.77;19.90;93026.63;2054853;70;20518;-81
2023/09/07 11:04:13;;;;;;;5.72;4.03;;;;;;;43.85;18.92;93029.91;2055001;70;20594;-82
2023/09/07 11:06:41;;;;;;;6.88;4.00;;;;;;;41.88;21.06;93018.19;2051686;70;20229;-82
2023/09/07 11:09:16;;;;;;;5.22;3.95;;;;;;;43.18;20.44;93010.19;2055009;70;20602;-82
2023/09/07 11:11:46;;;;;;;4.25;3.85;;;;;;;44.19;19.75;93025.59;2051442;70;20156;-82
2023/09/07 11:14:12;;;;;;;4.75;3.70;;;;;;;45.01;19.45;93018.13;2055003;70;20246;-81
2023/09/07 11:16:40;;;;;;;5.18;3.70;;;;;;;47.27;18.66;93022.34;2051298;70;20150;-82
2023/09/07 11:19:08;;;;;;;7.03;3.90;;;;;;;47.52;16.19;93021.94;2054957;70;20234;-81
2023/09/07 11:21:37;;;;;;;5.05;4.10;;;;;;;46.79;17.16;93025.13;2054926;70;20529;-82
2023/09/07 11:24:06;;;;;;;6.97;3.67;;;;;;;46.66;16.33;93018.66;2054446;70;20146;-81
2023/09/07 11:26:51;;;;;;;4.35;3.72;;;;;;;47.98;16.03;93008.00;2054504;70;20291;-81
2023/09/07 11:29:18;;;;;;;5.65;3.90;;;;;;;49.33;16.19;93012.09;2054274;70;20230;-81
2023/09/07 11:31:45;;;;;;;7.03;3.90;;;;;;;49.90;15.46;93015.53;2054139;70;20244;-80
2023/09/07 11:34:13;;;;;;;3.97;3.55;;;;;;;47.49;16.10;93002.09;2054813;70;20153;-80